sensor_id;sensor_type;location;lat;lon;timestamp;temperature;humidity
33023;DHT22;19390;51.460;5.710;2022-07-29T00:01:21;18.30;99.90
33023;DHT22;19390;51.460;5.710;2022-07-29T00:03:47;18.10;99.90
33023;DHT22;19390;51.460;5.710;2022-07-29T00:06:14;18.00;99.90
33023;DHT22;19390;51.460;5.710;2022-07-29T00:08:39;18.00;99.90
33023;DHT22;19390;51.460;5.710;2022-07-29T00:11:05;17.70;99.90
33023;DHT22;19390;51.460;5.710;2022-07-29T00:13:31;17.50;99.90
33023;DHT22;19390;51.460;5.710;2022-07-29T00:15:56;17.40;99.90
33023;DHT22;19390;51.460;5.710;2022-07-29T00:18:22;17.20;99.90
33023;DHT22;19390;51.460;5.710;2022-07-29T00:20:47;16.90;99.90
33023;DHT22;19390;51.460;5.710;2022-07-29T00:23:13;16.80;99.90
33023;DHT22;19390;51.460;5.710;2022-07-29T00:25:39;16.70;99.90
33023;DHT22;19390;51.460;5.710;2022-07-29T00:28:04;16.60;99.90
33023;DHT22;19390;51.460;5.710;2022-07-29T00:30:30;16.60;99.90
33023;DHT22;19390;51.460;5.710;2022-07-29T00:32:55;16.50;99.90
33023;DHT22;19390;51.460;5.710;2022-07-29T00:35:21;16.50;99.90
33023;DHT22;19390;51.460;5.710;2022-07-29T00:38:05;16.50;99.90
33023;DHT22;19390;51.460;5.710;2022-07-29T00:40:31;16.40;99.90
33023;DHT22;19390;51.460;5.710;2022-07-29T00:42:56;16.40;99.90
33023;DHT22;19390;51.460;5.710;2022-07-29T00:45:22;16.50;99.90
33023;DHT22;19390;51.460;5.710;2022-07-29T00:47:48;16.40;99.90
33023;DHT22;19390;51.460;5.710;2022-07-29T00:50:14;16.40;99.90
33023;DHT22;19390;51.460;5.710;2022-07-29T00:52:41;16.30;99.90
33023;DHT22;19390;51.460;5.710;2022-07-29T00:55:09;16.30;99.90
33023;DHT22;19390;51.460;5.710;2022-07-29T00:57:36;16.10;99.90
33023;DHT22;19390;51.460;5.710;2022-07-29T01:00:06;15.90;99.90
33023;DHT22;19390;51.460;5.710;2022-07-29T01:02:32;15.80;99.90
33023;DHT22;19390;51.460;5.710;2022-07-29T01:04:58;15.80;99.90
33023;DHT22;19390;51.460;5.710;2022-07-29T01:07:25;15.80;99.90
33023;DHT22;19390;51.460;5.710;2022-07-29T01:09:52;15.70;99.90
33023;DHT22;19390;51.460;5.710;2022-07-29T01:12:23;15.70;99.90
33023;DHT22;19390;51.460;5.710;2022-07-29T01:14:50;15.60;99.90
33023;DHT22;19390;51.460;5.710;2022-07-29T01:17:21;15.60;99.90
33023;DHT22;19390;51.460;5.710;2022-07-29T01:22:26;15.50;99.90
33023;DHT22;19390;51.460;5.710;2022-07-29T01:25:09;15.30;99.90
33023;DHT22;19390;51.460;5.710;2022-07-29T01:31:00;15.00;99.90
33023;DHT22;19390;51.460;5.710;2022-07-29T01:33:28;15.00;99.90
33023;DHT22;19390;51.460;5.710;2022-07-29T01:36:22;15.00;99.90
33023;DHT22;19390;51.460;5.710;2022-07-29T01:38:56;14.90;99.90
33023;DHT22;19390;51.460;5.710;2022-07-29T01:41:25;14.90;99.90
33023;DHT22;19390;51.460;5.710;2022-07-29T01:43:55;14.90;99.90
33023;DHT22;19390;51.460;5.710;2022-07-29T01:46:29;14.90;99.90
33023;DHT22;19390;51.460;5.710;2022-07-29T01:49:01;14.90;99.90
33023;DHT22;19390;51.460;5.710;2022-07-29T01:51:41;15.00;99.90
33023;DHT22;19390;51.460;5.710;2022-07-29T01:54:25;15.10;99.90
33023;DHT22;19390;51.460;5.710;2022-07-29T01:56:53;15.20;99.90
33023;DHT22;19390;51.460;5.710;2022-07-29T01:59:21;15.20;99.90
33023;DHT22;19390;51.460;5.710;2022-07-29T02:01:47;15.10;99.90
33023;DHT22;19390;51.460;5.710;2022-07-29T02:04:15;15.00;99.90
33023;DHT22;19390;51.460;5.710;2022-07-29T02:06:42;14.70;99.90
33023;DHT22;19390;51.460;5.710;2022-07-29T02:09:10;14.50;99.90
33023;DHT22;19390;51.460;5.710;2022-07-29T02:11:38;14.70;99.90
33023;DHT22;19390;51.460;5.710;2022-07-29T02:14:05;14.70;99.90
33023;DHT22;19390;51.460;5.710;2022-07-29T02:16:32;14.70;99.90
33023;DHT22;19390;51.460;5.710;2022-07-29T02:19:00;14.70;99.90
33023;DHT22;19390;51.460;5.710;2022-07-29T02:21:27;14.70;99.90
33023;DHT22;19390;51.460;5.710;2022-07-29T02:23:54;14.60;99.90
33023;DHT22;19390;51.460;5.710;2022-07-29T02:26:23;14.60;99.90
33023;DHT22;19390;51.460;5.710;2022-07-29T02:28:52;14.50;99.90
33023;DHT22;19390;51.460;5.710;2022-07-29T02:31:22;14.60;99.90
33023;DHT22;19390;51.460;5.710;2022-07-29T02:33:49;14.60;99.90
33023;DHT22;19390;51.460;5.710;2022-07-29T02:36:15;14.60;99.90
33023;DHT22;19390;51.460;5.710;2022-07-29T02:38:42;14.60;99.90
33023;DHT22;19390;51.460;5.710;2022-07-29T02:41:30;14.60;99.90
33023;DHT22;19390;51.460;5.710;2022-07-29T02:44:03;14.60;99.90
33023;DHT22;19390;51.460;5.710;2022-07-29T02:46:35;14.60;99.90
33023;DHT22;19390;51.460;5.710;2022-07-29T02:51:51;14.80;99.90
33023;DHT22;19390;51.460;5.710;2022-07-29T02:54:34;14.70;99.90
33023;DHT22;19390;51.460;5.710;2022-07-29T02:57:09;14.60;99.90
33023;DHT22;19390;51.460;5.710;2022-07-29T02:59:37;14.60;99.90
33023;DHT22;19390;51.460;5.710;2022-07-29T03:02:08;14.70;99.90
33023;DHT22;19390;51.460;5.710;2022-07-29T03:04:35;14.70;99.90
33023;DHT22;19390;51.460;5.710;2022-07-29T03:07:02;14.70;99.90
33023;DHT22;19390;51.460;5.710;2022-07-29T03:09:29;14.60;99.90
33023;DHT22;19390;51.460;5.710;2022-07-29T03:11:56;14.60;99.90
33023;DHT22;19390;51.460;5.710;2022-07-29T03:14:22;14.60;99.90
33023;DHT22;19390;51.460;5.710;2022-07-29T03:16:49;14.70;99.90
33023;DHT22;19390;51.460;5.710;2022-07-29T03:19:17;14.60;99.90
33023;DHT22;19390;51.460;5.710;2022-07-29T03:21:43;14.60;99.90
33023;DHT22;19390;51.460;5.710;2022-07-29T03:24:08;14.70;99.90
33023;DHT22;19390;51.460;5.710;2022-07-29T03:26:34;14.70;99.90
33023;DHT22;19390;51.460;5.710;2022-07-29T03:28:59;14.80;99.90
33023;DHT22;19390;51.460;5.710;2022-07-29T03:31:25;14.70;99.90
33023;DHT22;19390;51.460;5.710;2022-07-29T03:33:51;14.70;99.90
33023;DHT22;19390;51.460;5.710;2022-07-29T03:36:16;14.70;99.90
33023;DHT22;19390;51.460;5.710;2022-07-29T03:38:42;14.60;99.90
33023;DHT22;19390;51.460;5.710;2022-07-29T03:41:10;14.50;99.90
33023;DHT22;19390;51.460;5.710;2022-07-29T03:43:38;14.50;99.90
33023;DHT22;19390;51.460;5.710;2022-07-29T03:46:07;14.60;99.90
33023;DHT22;19390;51.460;5.710;2022-07-29T03:48:36;14.50;99.90
33023;DHT22;19390;51.460;5.710;2022-07-29T03:51:05;14.40;99.90
33023;DHT22;19390;51.460;5.710;2022-07-29T03:53:32;14.50;99.90
33023;DHT22;19390;51.460;5.710;2022-07-29T03:55:59;14.50;99.90
33023;DHT22;19390;51.460;5.710;2022-07-29T03:58:28;14.20;99.90
33023;DHT22;19390;51.460;5.710;2022-07-29T04:00:55;14.10;99.90
33023;DHT22;19390;51.460;5.710;2022-07-29T04:03:22;14.20;99.90
33023;DHT22;19390;51.460;5.710;2022-07-29T04:05:58;14.30;99.90
33023;DHT22;19390;51.460;5.710;2022-07-29T04:08:24;14.30;99.90
33023;DHT22;19390;51.460;5.710;2022-07-29T04:10:50;14.30;99.90
33023;DHT22;19390;51.460;5.710;2022-07-29T04:13:17;14.40;99.90
33023;DHT22;19390;51.460;5.710;2022-07-29T04:15:42;14.40;99.90
33023;DHT22;19390;51.460;5.710;2022-07-29T04:18:08;14.40;99.90
33023;DHT22;19390;51.460;5.710;2022-07-29T04:20:34;14.40;99.90
33023;DHT22;19390;51.460;5.710;2022-07-29T04:23:00;14.30;99.90
33023;DHT22;19390;51.460;5.710;2022-07-29T04:25:25;14.20;99.90
33023;DHT22;19390;51.460;5.710;2022-07-29T04:27:52;14.10;99.90
33023;DHT22;19390;51.460;5.710;2022-07-29T04:30:27;14.20;99.90
33023;DHT22;19390;51.460;5.710;2022-07-29T04:32:53;14.10;99.90
33023;DHT22;19390;51.460;5.710;2022-07-29T04:35:19;14.10;99.90
33023;DHT22;19390;51.460;5.710;2022-07-29T04:37:45;14.10;99.90
33023;DHT22;19390;51.460;5.710;2022-07-29T04:40:11;14.00;99.90
33023;DHT22;19390;51.460;5.710;2022-07-29T04:42:37;14.00;99.90
33023;DHT22;19390;51.460;5.710;2022-07-29T04:45:03;14.10;99.90
33023;DHT22;19390;51.460;5.710;2022-07-29T04:47:29;14.20;99.90
33023;DHT22;19390;51.460;5.710;2022-07-29T04:49:54;14.10;99.90
33023;DHT22;19390;51.460;5.710;2022-07-29T04:52:21;14.10;99.90
33023;DHT22;19390;51.460;5.710;2022-07-29T04:54:47;14.20;99.90
33023;DHT22;19390;51.460;5.710;2022-07-29T04:57:13;14.30;99.90
33023;DHT22;19390;51.460;5.710;2022-07-29T04:59:39;14.30;99.90
33023;DHT22;19390;51.460;5.710;2022-07-29T05:02:04;14.30;99.90
33023;DHT22;19390;51.460;5.710;2022-07-29T05:04:30;14.30;99.90
33023;DHT22;19390;51.460;5.710;2022-07-29T05:06:56;14.30;99.90
33023;DHT22;19390;51.460;5.710;2022-07-29T05:09:21;14.30;99.90
33023;DHT22;19390;51.460;5.710;2022-07-29T05:11:47;14.40;99.90
33023;DHT22;19390;51.460;5.710;2022-07-29T05:14:12;14.40;99.90
33023;DHT22;19390;51.460;5.710;2022-07-29T05:16:38;14.40;99.90
33023;DHT22;19390;51.460;5.710;2022-07-29T05:19:05;14.30;99.90
33023;DHT22;19390;51.460;5.710;2022-07-29T05:21:31;14.40;99.90
33023;DHT22;19390;51.460;5.710;2022-07-29T05:23:56;14.40;99.90
33023;DHT22;19390;51.460;5.710;2022-07-29T05:26:22;14.40;99.90
33023;DHT22;19390;51.460;5.710;2022-07-29T05:28:48;14.40;99.90
33023;DHT22;19390;51.460;5.710;2022-07-29T05:31:14;14.40;99.90
33023;DHT22;19390;51.460;5.710;2022-07-29T05:33:41;14.40;99.90
33023;DHT22;19390;51.460;5.710;2022-07-29T05:36:07;14.30;99.90
33023;DHT22;19390;51.460;5.710;2022-07-29T05:38:33;14.40;99.90
33023;DHT22;19390;51.460;5.710;2022-07-29T05:40:59;14.40;99.90
33023;DHT22;19390;51.460;5.710;2022-07-29T05:43:26;14.40;99.90
33023;DHT22;19390;51.460;5.710;2022-07-29T05:45:52;14.40;99.90
33023;DHT22;19390;51.460;5.710;2022-07-29T05:48:18;14.30;99.90
33023;DHT22;19390;51.460;5.710;2022-07-29T05:50:43;14.30;99.90
33023;DHT22;19390;51.460;5.710;2022-07-29T05:53:09;14.30;99.90
33023;DHT22;19390;51.460;5.710;2022-07-29T05:55:34;14.30;99.90
33023;DHT22;19390;51.460;5.710;2022-07-29T05:58:00;14.30;99.90
33023;DHT22;19390;51.460;5.710;2022-07-29T06:00:25;14.40;99.90
33023;DHT22;19390;51.460;5.710;2022-07-29T06:02:51;14.40;99.90
33023;DHT22;19390;51.460;5.710;2022-07-29T06:05:17;14.30;99.90
33023;DHT22;19390;51.460;5.710;2022-07-29T06:07:42;14.40;99.90
33023;DHT22;19390;51.460;5.710;2022-07-29T06:10:08;14.40;99.90
33023;DHT22;19390;51.460;5.710;2022-07-29T06:12:34;14.40;99.90
33023;DHT22;19390;51.460;5.710;2022-07-29T06:15:00;14.30;99.90
33023;DHT22;19390;51.460;5.710;2022-07-29T06:17:25;14.40;99.90
33023;DHT22;19390;51.460;5.710;2022-07-29T06:19:51;14.30;99.90
33023;DHT22;19390;51.460;5.710;2022-07-29T06:22:17;14.40;99.90
33023;DHT22;19390;51.460;5.710;2022-07-29T06:24:43;14.40;99.90
33023;DHT22;19390;51.460;5.710;2022-07-29T06:27:10;14.40;99.90
33023;DHT22;19390;51.460;5.710;2022-07-29T06:29:36;14.40;99.90
33023;DHT22;19390;51.460;5.710;2022-07-29T06:32:01;14.40;99.90
33023;DHT22;19390;51.460;5.710;2022-07-29T06:34:27;14.40;99.90
33023;DHT22;19390;51.460;5.710;2022-07-29T06:36:53;14.40;99.90
33023;DHT22;19390;51.460;5.710;2022-07-29T06:39:19;14.40;99.90
33023;DHT22;19390;51.460;5.710;2022-07-29T06:41:48;14.50;99.90
33023;DHT22;19390;51.460;5.710;2022-07-29T06:44:15;14.50;99.90
33023;DHT22;19390;51.460;5.710;2022-07-29T06:46:41;14.60;99.90
33023;DHT22;19390;51.460;5.710;2022-07-29T06:49:07;14.60;99.90
33023;DHT22;19390;51.460;5.710;2022-07-29T06:51:33;14.70;99.90
33023;DHT22;19390;51.460;5.710;2022-07-29T06:53:59;14.60;99.90
33023;DHT22;19390;51.460;5.710;2022-07-29T06:56:24;14.70;99.90
33023;DHT22;19390;51.460;5.710;2022-07-29T06:58:50;14.70;99.90
33023;DHT22;19390;51.460;5.710;2022-07-29T07:01:16;14.90;99.90
33023;DHT22;19390;51.460;5.710;2022-07-29T07:03:41;14.90;99.90
33023;DHT22;19390;51.460;5.710;2022-07-29T07:06:07;15.00;99.90
33023;DHT22;19390;51.460;5.710;2022-07-29T07:08:33;15.10;99.90
33023;DHT22;19390;51.460;5.710;2022-07-29T07:10:59;15.30;99.90
33023;DHT22;19390;51.460;5.710;2022-07-29T07:13:25;15.50;99.90
33023;DHT22;19390;51.460;5.710;2022-07-29T07:15:51;15.60;99.90
33023;DHT22;19390;51.460;5.710;2022-07-29T07:18:17;15.90;99.90
33023;DHT22;19390;51.460;5.710;2022-07-29T07:20:44;16.60;99.90
33023;DHT22;19390;51.460;5.710;2022-07-29T07:23:10;17.00;99.90
33023;DHT22;19390;51.460;5.710;2022-07-29T07:25:35;18.80;99.90
33023;DHT22;19390;51.460;5.710;2022-07-29T07:28:02;19.50;99.90
33023;DHT22;19390;51.460;5.710;2022-07-29T07:30:27;19.10;99.90
33023;DHT22;19390;51.460;5.710;2022-07-29T07:32:54;18.80;99.90
33023;DHT22;19390;51.460;5.710;2022-07-29T07:35:21;18.30;99.90
33023;DHT22;19390;51.460;5.710;2022-07-29T07:37:47;18.30;99.90
33023;DHT22;19390;51.460;5.710;2022-07-29T07:40:13;18.10;99.90
33023;DHT22;19390;51.460;5.710;2022-07-29T07:42:39;18.40;99.90
33023;DHT22;19390;51.460;5.710;2022-07-29T07:45:06;18.20;99.90
33023;DHT22;19390;51.460;5.710;2022-07-29T07:47:34;18.60;99.90
33023;DHT22;19390;51.460;5.710;2022-07-29T07:50:00;18.70;99.90
33023;DHT22;19390;51.460;5.710;2022-07-29T07:52:26;18.60;99.90
33023;DHT22;19390;51.460;5.710;2022-07-29T07:54:51;19.20;99.90
33023;DHT22;19390;51.460;5.710;2022-07-29T07:57:18;23.60;99.90
33023;DHT22;19390;51.460;5.710;2022-07-29T07:59:44;25.50;99.90
33023;DHT22;19390;51.460;5.710;2022-07-29T08:02:09;25.90;99.90
33023;DHT22;19390;51.460;5.710;2022-07-29T08:04:35;25.10;99.90
33023;DHT22;19390;51.460;5.710;2022-07-29T08:07:01;26.40;99.90
33023;DHT22;19390;51.460;5.710;2022-07-29T08:09:28;27.30;99.90
33023;DHT22;19390;51.460;5.710;2022-07-29T08:11:54;26.00;99.90
33023;DHT22;19390;51.460;5.710;2022-07-29T08:14:20;27.40;99.90
33023;DHT22;19390;51.460;5.710;2022-07-29T08:16:46;27.10;99.90
33023;DHT22;19390;51.460;5.710;2022-07-29T08:19:12;27.00;99.90
33023;DHT22;19390;51.460;5.710;2022-07-29T08:21:37;28.30;99.90
33023;DHT22;19390;51.460;5.710;2022-07-29T08:24:04;27.30;99.90
33023;DHT22;19390;51.460;5.710;2022-07-29T08:26:48;28.90;99.90
33023;DHT22;19390;51.460;5.710;2022-07-29T08:29:13;27.40;99.90
33023;DHT22;19390;51.460;5.710;2022-07-29T08:31:39;27.60;99.90
33023;DHT22;19390;51.460;5.710;2022-07-29T08:34:05;27.70;99.90
33023;DHT22;19390;51.460;5.710;2022-07-29T08:36:32;29.30;99.90
33023;DHT22;19390;51.460;5.710;2022-07-29T08:38:58;29.60;99.90
33023;DHT22;19390;51.460;5.710;2022-07-29T08:41:25;29.00;99.90
33023;DHT22;19390;51.460;5.710;2022-07-29T08:43:50;27.80;99.90
33023;DHT22;19390;51.460;5.710;2022-07-29T08:46:17;27.10;99.90
33023;DHT22;19390;51.460;5.710;2022-07-29T08:48:43;28.10;99.90
33023;DHT22;19390;51.460;5.710;2022-07-29T08:51:13;29.60;99.90
33023;DHT22;19390;51.460;5.710;2022-07-29T08:53:41;29.00;99.90
33023;DHT22;19390;51.460;5.710;2022-07-29T08:56:11;29.00;99.90
33023;DHT22;19390;51.460;5.710;2022-07-29T08:58:36;29.60;99.90
33023;DHT22;19390;51.460;5.710;2022-07-29T09:01:03;29.20;99.90
33023;DHT22;19390;51.460;5.710;2022-07-29T09:03:33;29.00;99.90
33023;DHT22;19390;51.460;5.710;2022-07-29T09:06:01;30.00;99.90
33023;DHT22;19390;51.460;5.710;2022-07-29T09:08:27;30.60;99.90
33023;DHT22;19390;51.460;5.710;2022-07-29T09:10:52;30.30;99.90
33023;DHT22;19390;51.460;5.710;2022-07-29T09:13:18;30.20;99.90
33023;DHT22;19390;51.460;5.710;2022-07-29T09:15:44;30.70;99.90
33023;DHT22;19390;51.460;5.710;2022-07-29T09:18:10;31.00;99.90
33023;DHT22;19390;51.460;5.710;2022-07-29T09:20:36;29.40;99.90
33023;DHT22;19390;51.460;5.710;2022-07-29T09:23:20;30.30;99.90
33023;DHT22;19390;51.460;5.710;2022-07-29T09:25:46;28.60;99.90
33023;DHT22;19390;51.460;5.710;2022-07-29T09:28:14;29.80;99.90
33023;DHT22;19390;51.460;5.710;2022-07-29T09:30:53;29.60;99.90
33023;DHT22;19390;51.460;5.710;2022-07-29T09:33:20;31.10;99.90
33023;DHT22;19390;51.460;5.710;2022-07-29T09:35:46;31.90;99.90
33023;DHT22;19390;51.460;5.710;2022-07-29T09:38:23;30.70;99.90
33023;DHT22;19390;51.460;5.710;2022-07-29T09:40:56;31.20;99.90
33023;DHT22;19390;51.460;5.710;2022-07-29T09:43:22;29.50;99.90
33023;DHT22;19390;51.460;5.710;2022-07-29T09:45:48;29.30;99.90
33023;DHT22;19390;51.460;5.710;2022-07-29T09:48:22;31.30;99.90
33023;DHT22;19390;51.460;5.710;2022-07-29T09:50:48;30.60;99.90
33023;DHT22;19390;51.460;5.710;2022-07-29T09:53:37;30.40;99.90
33023;DHT22;19390;51.460;5.710;2022-07-29T09:56:04;27.70;99.90
33023;DHT22;19390;51.460;5.710;2022-07-29T09:58:30;29.80;99.90
33023;DHT22;19390;51.460;5.710;2022-07-29T10:00:56;28.20;99.90
33023;DHT22;19390;51.460;5.710;2022-07-29T10:03:22;28.90;99.90
33023;DHT22;19390;51.460;5.710;2022-07-29T10:06:11;31.20;99.90
33023;DHT22;19390;51.460;5.710;2022-07-29T10:08:38;31.70;99.90
33023;DHT22;19390;51.460;5.710;2022-07-29T10:11:16;29.80;99.90
33023;DHT22;19390;51.460;5.710;2022-07-29T10:13:43;30.90;99.90
33023;DHT22;19390;51.460;5.710;2022-07-29T10:16:09;27.40;99.90
33023;DHT22;19390;51.460;5.710;2022-07-29T10:18:38;26.50;99.90
33023;DHT22;19390;51.460;5.710;2022-07-29T10:21:03;26.00;99.90
33023;DHT22;19390;51.460;5.710;2022-07-29T10:23:29;26.90;99.90
33023;DHT22;19390;51.460;5.710;2022-07-29T10:25:55;28.50;99.90
33023;DHT22;19390;51.460;5.710;2022-07-29T10:28:21;27.90;99.90
33023;DHT22;19390;51.460;5.710;2022-07-29T10:30:49;28.10;99.90
33023;DHT22;19390;51.460;5.710;2022-07-29T10:33:51;28.90;99.90
33023;DHT22;19390;51.460;5.710;2022-07-29T10:39:40;31.10;99.90
33023;DHT22;19390;51.460;5.710;2022-07-29T10:42:17;30.10;99.90
33023;DHT22;19390;51.460;5.710;2022-07-29T10:44:43;31.20;99.90
33023;DHT22;19390;51.460;5.710;2022-07-29T10:47:23;30.60;99.90
33023;DHT22;19390;51.460;5.710;2022-07-29T10:50:00;31.30;99.90
33023;DHT22;19390;51.460;5.710;2022-07-29T10:55:34;28.60;99.90
33023;DHT22;19390;51.460;5.710;2022-07-29T11:00:40;31.20;99.90
33023;DHT22;19390;51.460;5.710;2022-07-29T11:03:06;28.80;99.90
33023;DHT22;19390;51.460;5.710;2022-07-29T11:05:54;29.10;99.90
33023;DHT22;19390;51.460;5.710;2022-07-29T11:08:21;31.00;99.90
33023;DHT22;19390;51.460;5.710;2022-07-29T11:10:53;31.10;99.90
33023;DHT22;19390;51.460;5.710;2022-07-29T11:16:14;28.00;99.90
33023;DHT22;19390;51.460;5.710;2022-07-29T11:21:39;28.60;99.90
33023;DHT22;19390;51.460;5.710;2022-07-29T11:24:20;29.70;99.90
33023;DHT22;19390;51.460;5.710;2022-07-29T11:27:07;30.10;99.90
33023;DHT22;19390;51.460;5.710;2022-07-29T11:29:37;30.80;99.90
33023;DHT22;19390;51.460;5.710;2022-07-29T11:32:12;30.50;99.90
33023;DHT22;19390;51.460;5.710;2022-07-29T11:34:40;30.50;99.90
33023;DHT22;19390;51.460;5.710;2022-07-29T11:45:05;30.10;99.90
33023;DHT22;19390;51.460;5.710;2022-07-29T11:47:34;30.10;99.90
33023;DHT22;19390;51.460;5.710;2022-07-29T11:50:01;27.40;99.90
33023;DHT22;19390;51.460;5.710;2022-07-29T11:52:35;28.90;99.90
33023;DHT22;19390;51.460;5.710;2022-07-29T11:55:04;29.40;99.90
33023;DHT22;19390;51.460;5.710;2022-07-29T11:57:30;29.30;99.90
33023;DHT22;19390;51.460;5.710;2022-07-29T11:59:58;27.10;99.90
33023;DHT22;19390;51.460;5.710;2022-07-29T12:02:24;28.60;99.90
33023;DHT22;19390;51.460;5.710;2022-07-29T12:04:50;29.40;99.90
33023;DHT22;19390;51.460;5.710;2022-07-29T12:07:16;29.70;99.90
33023;DHT22;19390;51.460;5.710;2022-07-29T12:09:53;30.40;99.90
33023;DHT22;19390;51.460;5.710;2022-07-29T12:12:19;30.80;99.90
33023;DHT22;19390;51.460;5.710;2022-07-29T12:14:45;30.50;99.90
33023;DHT22;19390;51.460;5.710;2022-07-29T12:17:36;31.40;99.90
33023;DHT22;19390;51.460;5.710;2022-07-29T12:20:04;28.80;99.90
33023;DHT22;19390;51.460;5.710;2022-07-29T12:22:33;30.10;99.90
33023;DHT22;19390;51.460;5.710;2022-07-29T12:25:04;30.60;99.90
33023;DHT22;19390;51.460;5.710;2022-07-29T12:27:30;30.60;99.90
33023;DHT22;19390;51.460;5.710;2022-07-29T12:30:07;31.30;99.90
33023;DHT22;19390;51.460;5.710;2022-07-29T12:32:45;30.80;99.90
33023;DHT22;19390;51.460;5.710;2022-07-29T12:35:13;27.50;99.90
33023;DHT22;19390;51.460;5.710;2022-07-29T12:37:40;29.70;99.90
33023;DHT22;19390;51.460;5.710;2022-07-29T12:40:07;30.60;99.90
33023;DHT22;19390;51.460;5.710;2022-07-29T12:42:33;31.20;99.90
33023;DHT22;19390;51.460;5.710;2022-07-29T12:45:00;30.10;99.90
33023;DHT22;19390;51.460;5.710;2022-07-29T12:47:26;29.90;99.90
33023;DHT22;19390;51.460;5.710;2022-07-29T12:50:11;30.10;99.90
33023;DHT22;19390;51.460;5.710;2022-07-29T12:52:37;29.10;99.90
33023;DHT22;19390;51.460;5.710;2022-07-29T12:55:03;29.10;99.90
33023;DHT22;19390;51.460;5.710;2022-07-29T12:57:30;30.50;99.90
33023;DHT22;19390;51.460;5.710;2022-07-29T13:02:33;30.30;99.90
33023;DHT22;19390;51.460;5.710;2022-07-29T13:05:00;29.40;99.90
33023;DHT22;19390;51.460;5.710;2022-07-29T13:07:28;30.20;99.90
33023;DHT22;19390;51.460;5.710;2022-07-29T13:15:24;30.30;99.90
33023;DHT22;19390;51.460;5.710;2022-07-29T13:17:49;30.50;99.90
33023;DHT22;19390;51.460;5.710;2022-07-29T13:20:15;31.10;99.90
33023;DHT22;19390;51.460;5.710;2022-07-29T13:22:41;30.80;99.90
33023;DHT22;19390;51.460;5.710;2022-07-29T13:25:08;30.90;99.90
33023;DHT22;19390;51.460;5.710;2022-07-29T13:27:36;30.30;99.90
33023;DHT22;19390;51.460;5.710;2022-07-29T13:30:04;29.70;99.90
33023;DHT22;19390;51.460;5.710;2022-07-29T13:32:31;30.00;99.90
33023;DHT22;19390;51.460;5.710;2022-07-29T13:35:01;28.80;99.90
33023;DHT22;19390;51.460;5.710;2022-07-29T13:37:27;28.60;99.90
33023;DHT22;19390;51.460;5.710;2022-07-29T13:39:55;28.80;99.90
33023;DHT22;19390;51.460;5.710;2022-07-29T13:42:21;28.90;99.90
33023;DHT22;19390;51.460;5.710;2022-07-29T13:44:47;28.60;99.90
33023;DHT22;19390;51.460;5.710;2022-07-29T13:47:14;28.30;99.90
33023;DHT22;19390;51.460;5.710;2022-07-29T13:49:41;27.90;99.90
33023;DHT22;19390;51.460;5.710;2022-07-29T13:52:07;27.80;99.90
33023;DHT22;19390;51.460;5.710;2022-07-29T13:54:32;28.40;99.90
33023;DHT22;19390;51.460;5.710;2022-07-29T13:56:58;28.80;99.90
33023;DHT22;19390;51.460;5.710;2022-07-29T13:59:24;28.20;99.90
33023;DHT22;19390;51.460;5.710;2022-07-29T14:01:49;28.10;99.90
33023;DHT22;19390;51.460;5.710;2022-07-29T14:04:16;27.40;99.90
33023;DHT22;19390;51.460;5.710;2022-07-29T14:06:41;27.50;99.90
33023;DHT22;19390;51.460;5.710;2022-07-29T14:09:07;27.30;99.90
33023;DHT22;19390;51.460;5.710;2022-07-29T14:11:34;27.50;99.90
33023;DHT22;19390;51.460;5.710;2022-07-29T14:14:00;27.30;99.90
33023;DHT22;19390;51.460;5.710;2022-07-29T14:16:26;27.80;99.90
33023;DHT22;19390;51.460;5.710;2022-07-29T14:18:51;28.20;99.90
33023;DHT22;19390;51.460;5.710;2022-07-29T14:21:17;28.70;99.90
33023;DHT22;19390;51.460;5.710;2022-07-29T14:23:42;28.70;99.90
33023;DHT22;19390;51.460;5.710;2022-07-29T14:26:08;28.10;99.90
33023;DHT22;19390;51.460;5.710;2022-07-29T14:28:34;27.80;99.90
33023;DHT22;19390;51.460;5.710;2022-07-29T14:30:59;27.40;99.90
33023;DHT22;19390;51.460;5.710;2022-07-29T14:33:25;27.40;99.90
33023;DHT22;19390;51.460;5.710;2022-07-29T14:35:50;27.40;99.90
33023;DHT22;19390;51.460;5.710;2022-07-29T14:38:16;27.00;99.90
33023;DHT22;19390;51.460;5.710;2022-07-29T14:40:41;27.20;99.90
33023;DHT22;19390;51.460;5.710;2022-07-29T14:43:07;27.50;99.90
33023;DHT22;19390;51.460;5.710;2022-07-29T14:45:33;27.10;99.90
33023;DHT22;19390;51.460;5.710;2022-07-29T14:47:59;27.30;99.90
33023;DHT22;19390;51.460;5.710;2022-07-29T14:50:25;27.20;99.90
33023;DHT22;19390;51.460;5.710;2022-07-29T14:52:51;27.20;99.90
33023;DHT22;19390;51.460;5.710;2022-07-29T14:55:17;27.00;99.90
33023;DHT22;19390;51.460;5.710;2022-07-29T14:57:43;26.70;99.90
33023;DHT22;19390;51.460;5.710;2022-07-29T15:00:09;27.00;99.90
33023;DHT22;19390;51.460;5.710;2022-07-29T15:02:35;27.50;99.90
33023;DHT22;19390;51.460;5.710;2022-07-29T15:05:01;27.70;99.90
33023;DHT22;19390;51.460;5.710;2022-07-29T15:07:27;27.70;99.90
33023;DHT22;19390;51.460;5.710;2022-07-29T15:09:53;27.80;99.90
33023;DHT22;19390;51.460;5.710;2022-07-29T15:12:18;27.60;99.90
33023;DHT22;19390;51.460;5.710;2022-07-29T15:14:44;27.70;99.90
33023;DHT22;19390;51.460;5.710;2022-07-29T15:17:09;27.70;99.90
33023;DHT22;19390;51.460;5.710;2022-07-29T15:19:35;27.80;99.90
33023;DHT22;19390;51.460;5.710;2022-07-29T15:22:01;27.60;99.90
33023;DHT22;19390;51.460;5.710;2022-07-29T15:24:27;27.40;99.90
33023;DHT22;19390;51.460;5.710;2022-07-29T15:26:52;27.10;99.90
33023;DHT22;19390;51.460;5.710;2022-07-29T15:29:18;27.10;99.90
33023;DHT22;19390;51.460;5.710;2022-07-29T15:31:44;27.10;99.90
33023;DHT22;19390;51.460;5.710;2022-07-29T15:34:09;27.40;99.90
33023;DHT22;19390;51.460;5.710;2022-07-29T15:36:35;27.20;99.90
33023;DHT22;19390;51.460;5.710;2022-07-29T15:39:01;26.70;99.90
33023;DHT22;19390;51.460;5.710;2022-07-29T15:41:26;26.20;99.90
33023;DHT22;19390;51.460;5.710;2022-07-29T15:43:52;26.00;99.90
33023;DHT22;19390;51.460;5.710;2022-07-29T15:46:19;25.90;99.90
33023;DHT22;19390;51.460;5.710;2022-07-29T15:49:05;25.80;99.90
33023;DHT22;19390;51.460;5.710;2022-07-29T15:51:31;25.70;99.90
33023;DHT22;19390;51.460;5.710;2022-07-29T15:53:57;26.00;99.90
33023;DHT22;19390;51.460;5.710;2022-07-29T15:56:23;26.10;99.90
33023;DHT22;19390;51.460;5.710;2022-07-29T15:58:49;26.20;99.90
33023;DHT22;19390;51.460;5.710;2022-07-29T16:01:16;26.20;99.90
33023;DHT22;19390;51.460;5.710;2022-07-29T16:03:41;26.70;99.90
33023;DHT22;19390;51.460;5.710;2022-07-29T16:06:07;26.90;99.90
33023;DHT22;19390;51.460;5.710;2022-07-29T16:08:33;26.90;99.90
33023;DHT22;19390;51.460;5.710;2022-07-29T16:10:58;27.20;99.90
33023;DHT22;19390;51.460;5.710;2022-07-29T16:13:24;27.50;99.90